sensor_id;sensor_type;location;lat;lon;timestamp;P1;durP1;ratioP1;P2;durP2;ratioP2
18076;SDS011;9165;45.714;11.362;2023-06-05T00:00:47;3.67;;;3.03;;
18076;SDS011;9165;45.714;11.362;2023-06-05T00:03:14;3.17;;;2.60;;
18076;SDS011;9165;45.714;11.362;2023-06-05T00:05:43;3.80;;;3.10;;
18076;SDS011;9165;45.714;11.362;2023-06-05T00:08:11;3.87;;;3.03;;
18076;SDS011;9165;45.714;11.362;2023-06-05T00:10:38;4.50;;;3.37;;
18076;SDS011;9165;45.714;11.362;2023-06-05T00:13:05;3.30;;;3.00;;
18076;SDS011;9165;45.714;11.362;2023-06-05T00:15:32;5.87;;;3.17;;
18076;SDS011;9165;45.714;11.362;2023-06-05T00:18:00;3.30;;;3.00;;
18076;SDS011;9165;45.714;11.362;2023-06-05T00:20:27;3.50;;;3.10;;
18076;SDS011;9165;45.714;11.362;2023-06-05T00:22:54;5.40;;;3.10;;
18076;SDS011;9165;45.714;11.362;2023-06-05T00:25:21;3.73;;;3.00;;
18076;SDS011;9165;45.714;11.362;2023-06-05T00:27:48;4.77;;;3.43;;
18076;SDS011;9165;45.714;11.362;2023-06-05T00:30:15;3.47;;;3.17;;
18076;SDS011;9165;45.714;11.362;2023-06-05T00:32:41;4.43;;;3.30;;
18076;SDS011;9165;45.714;11.362;2023-06-05T00:35:08;3.63;;;2.90;;
18076;SDS011;9165;45.714;11.362;2023-06-05T00:37:35;3.40;;;2.90;;
18076;SDS011;9165;45.714;11.362;2023-06-05T00:40:02;4.57;;;3.30;;
18076;SDS011;9165;45.714;11.362;2023-06-05T00:42:31;3.63;;;3.20;;
18076;SDS011;9165;45.714;11.362;2023-06-05T00:44:57;6.73;;;3.33;;
18076;SDS011;9165;45.714;11.362;2023-06-05T00:47:24;6.57;;;3.03;;
18076;SDS011;9165;45.714;11.362;2023-06-05T00:49:51;3.80;;;3.23;;
18076;SDS011;9165;45.714;11.362;2023-06-05T00:52:18;5.40;;;3.40;;
18076;SDS011;9165;45.714;11.362;2023-06-05T00:54:45;3.73;;;3.20;;
18076;SDS011;9165;45.714;11.362;2023-06-05T00:57:12;3.70;;;3.33;;
18076;SDS011;9165;45.714;11.362;2023-06-05T00:59:40;4.83;;;3.27;;
18076;SDS011;9165;45.714;11.362;2023-06-05T01:02:09;5.40;;;3.63;;
18076;SDS011;9165;45.714;11.362;2023-06-05T01:04:37;4.27;;;3.37;;
18076;SDS011;9165;45.714;11.362;2023-06-05T01:07:06;4.53;;;3.60;;
18076;SDS011;9165;45.714;11.362;2023-06-05T01:09:34;4.43;;;3.47;;
18076;SDS011;9165;45.714;11.362;2023-06-05T01:12:02;4.30;;;3.30;;
18076;SDS011;9165;45.714;11.362;2023-06-05T01:14:30;4.45;;;3.50;;
18076;SDS011;9165;45.714;11.362;2023-06-05T01:16:59;5.80;;;4.43;;
18076;SDS011;9165;45.714;11.362;2023-06-05T01:19:27;4.73;;;3.83;;
18076;SDS011;9165;45.714;11.362;2023-06-05T01:21:56;7.10;;;4.57;;
18076;SDS011;9165;45.714;11.362;2023-06-05T01:24:24;6.60;;;4.97;;
18076;SDS011;9165;45.714;11.362;2023-06-05T01:26:54;5.97;;;4.80;;
18076;SDS011;9165;45.714;11.362;2023-06-05T01:29:26;6.73;;;4.90;;
18076;SDS011;9165;45.714;11.362;2023-06-05T01:31:55;5.53;;;4.50;;
18076;SDS011;9165;45.714;11.362;2023-06-05T01:34:25;6.30;;;5.00;;
18076;SDS011;9165;45.714;11.362;2023-06-05T01:36:53;3.30;;;3.00;;
18076;SDS011;9165;45.714;11.362;2023-06-05T01:39:21;3.20;;;2.03;;
18076;SDS011;9165;45.714;11.362;2023-06-05T01:41:50;2.90;;;2.60;;
18076;SDS011;9165;45.714;11.362;2023-06-05T01:44:18;1.50;;;1.40;;
18076;SDS011;9165;45.714;11.362;2023-06-05T01:46:44;2.50;;;1.80;;
18076;SDS011;9165;45.714;11.362;2023-06-05T01:49:11;1.63;;;1.37;;
18076;SDS011;9165;45.714;11.362;2023-06-05T01:51:38;1.27;;;1.17;;
18076;SDS011;9165;45.714;11.362;2023-06-05T01:54:04;1.70;;;1.60;;
18076;SDS011;9165;45.714;11.362;2023-06-05T01:56:31;1.20;;;1.10;;
18076;SDS011;9165;45.714;11.362;2023-06-05T01:59:04;3.43;;;1.40;;
18076;SDS011;9165;45.714;11.362;2023-06-05T02:01:32;1.50;;;1.23;;
18076;SDS011;9165;45.714;11.362;2023-06-05T02:03:59;2.33;;;1.60;;
18076;SDS011;9165;45.714;11.362;2023-06-05T02:06:31;1.53;;;1.43;;
18076;SDS011;9165;45.714;11.362;2023-06-05T02:09:06;4.13;;;1.77;;
18076;SDS011;9165;45.714;11.362;2023-06-05T02:11:33;1.93;;;1.70;;
18076;SDS011;9165;45.714;11.362;2023-06-05T02:14:02;1.73;;;1.63;;
18076;SDS011;9165;45.714;11.362;2023-06-05T02:16:29;1.63;;;1.53;;
18076;SDS011;9165;45.714;11.362;2023-06-05T02:18:56;3.37;;;1.73;;
18076;SDS011;9165;45.714;11.362;2023-06-05T02:21:28;2.67;;;2.07;;
18076;SDS011;9165;45.714;11.362;2023-06-05T02:23:55;2.10;;;1.90;;
18076;SDS011;9165;45.714;11.362;2023-06-05T02:26:23;2.33;;;1.93;;
18076;SDS011;9165;45.714;11.362;2023-06-05T02:28:50;2.30;;;2.10;;
18076;SDS011;9165;45.714;11.362;2023-06-05T02:31:20;3.33;;;2.10;;
18076;SDS011;9165;45.714;11.362;2023-06-05T02:33:50;2.47;;;2.27;;
18076;SDS011;9165;45.714;11.362;2023-06-05T02:36:16;3.03;;;2.03;;
18076;SDS011;9165;45.714;11.362;2023-06-05T02:38:43;3.03;;;2.27;;
18076;SDS011;9165;45.714;11.362;2023-06-05T02:41:09;3.03;;;2.37;;
18076;SDS011;9165;45.714;11.362;2023-06-05T02:43:36;2.40;;;2.13;;
18076;SDS011;9165;45.714;11.362;2023-06-05T02:46:02;2.40;;;2.00;;
18076;SDS011;9165;45.714;11.362;2023-06-05T02:48:30;2.30;;;2.03;;
18076;SDS011;9165;45.714;11.362;2023-06-05T02:50:57;2.70;;;2.50;;
18076;SDS011;9165;45.714;11.362;2023-06-05T02:53:24;2.70;;;2.10;;
18076;SDS011;9165;45.714;11.362;2023-06-05T02:55:51;2.57;;;2.27;;
18076;SDS011;9165;45.714;11.362;2023-06-05T02:58:18;2.70;;;2.50;;
18076;SDS011;9165;45.714;11.362;2023-06-05T03:00:46;2.50;;;2.30;;
18076;SDS011;9165;45.714;11.362;2023-06-05T03:03:15;2.17;;;1.97;;
18076;SDS011;9165;45.714;11.362;2023-06-05T03:05:44;2.87;;;2.37;;
18076;SDS011;9165;45.714;11.362;2023-06-05T03:08:10;3.17;;;2.20;;
18076;SDS011;9165;45.714;11.362;2023-06-05T03:10:37;2.27;;;2.07;;
18076;SDS011;9165;45.714;11.362;2023-06-05T03:13:04;3.30;;;2.40;;
18076;SDS011;9165;45.714;11.362;2023-06-05T03:15:30;5.40;;;2.10;;
18076;SDS011;9165;45.714;11.362;2023-06-05T03:17:57;1.97;;;1.80;;
18076;SDS011;9165;45.714;11.362;2023-06-05T03:20:23;3.10;;;2.30;;
18076;SDS011;9165;45.714;11.362;2023-06-05T03:22:51;2.13;;;1.93;;
18076;SDS011;9165;45.714;11.362;2023-06-05T03:25:18;2.60;;;2.40;;
18076;SDS011;9165;45.714;11.362;2023-06-05T03:27:45;2.80;;;2.50;;
18076;SDS011;9165;45.714;11.362;2023-06-05T03:30:12;2.20;;;2.00;;
18076;SDS011;9165;45.714;11.362;2023-06-05T03:32:41;4.53;;;2.13;;
18076;SDS011;9165;45.714;11.362;2023-06-05T03:35:08;3.77;;;2.63;;
18076;SDS011;9165;45.714;11.362;2023-06-05T03:37:35;3.93;;;2.20;;
18076;SDS011;9165;45.714;11.362;2023-06-05T03:40:03;3.47;;;2.03;;
18076;SDS011;9165;45.714;11.362;2023-06-05T03:42:30;2.27;;;2.07;;
18076;SDS011;9165;45.714;11.362;2023-06-05T03:44:57;2.60;;;2.03;;
18076;SDS011;9165;45.714;11.362;2023-06-05T03:47:23;2.93;;;2.60;;
18076;SDS011;9165;45.714;11.362;2023-06-05T03:49:53;2.67;;;2.20;;
18076;SDS011;9165;45.714;11.362;2023-06-05T03:52:21;2.30;;;1.83;;
18076;SDS011;9165;45.714;11.362;2023-06-05T03:54:49;2.33;;;1.90;;
18076;SDS011;9165;45.714;11.362;2023-06-05T03:57:19;2.17;;;1.90;;
18076;SDS011;9165;45.714;11.362;2023-06-05T03:59:47;4.30;;;1.90;;
18076;SDS011;9165;45.714;11.362;2023-06-05T04:02:14;3.87;;;1.90;;
18076;SDS011;9165;45.714;11.362;2023-06-05T04:04:40;1.97;;;1.77;;
18076;SDS011;9165;45.714;11.362;2023-06-05T04:07:07;2.30;;;2.10;;
18076;SDS011;9165;45.714;11.362;2023-06-05T04:09:33;4.33;;;2.20;;
18076;SDS011;9165;45.714;11.362;2023-06-05T04:12:00;4.07;;;1.90;;
18076;SDS011;9165;45.714;11.362;2023-06-05T04:14:28;2.80;;;2.30;;
18076;SDS011;9165;45.714;11.362;2023-06-05T04:16:54;2.10;;;1.90;;
18076;SDS011;9165;45.714;11.362;2023-06-05T04:19:21;2.60;;;2.27;;
18076;SDS011;9165;45.714;11.362;2023-06-05T04:21:47;2.40;;;2.20;;
18076;SDS011;9165;45.714;11.362;2023-06-05T04:24:14;5.80;;;1.83;;
18076;SDS011;9165;45.714;11.362;2023-06-05T04:26:41;4.67;;;2.10;;
18076;SDS011;9165;45.714;11.362;2023-06-05T04:29:07;3.43;;;2.30;;
18076;SDS011;9165;45.714;11.362;2023-06-05T04:31:40;2.43;;;2.23;;
18076;SDS011;9165;45.714;11.362;2023-06-05T04:34:06;2.10;;;1.90;;
18076;SDS011;9165;45.714;11.362;2023-06-05T04:36:33;1.87;;;1.77;;
18076;SDS011;9165;45.714;11.362;2023-06-05T04:39:00;2.10;;;1.80;;
18076;SDS011;9165;45.714;11.362;2023-06-05T04:41:29;2.37;;;1.90;;
18076;SDS011;9165;45.714;11.362;2023-06-05T04:43:57;3.60;;;1.87;;
18076;SDS011;9165;45.714;11.362;2023-06-05T04:46:25;1.73;;;1.50;;
18076;SDS011;9165;45.714;11.362;2023-06-05T04:48:53;2.87;;;2.20;;
18076;SDS011;9165;45.714;11.362;2023-06-05T04:51:20;2.43;;;1.90;;
18076;SDS011;9165;45.714;11.362;2023-06-05T04:53:47;2.40;;;1.73;;
18076;SDS011;9165;45.714;11.362;2023-06-05T04:56:18;2.23;;;1.80;;
18076;SDS011;9165;45.714;11.362;2023-06-05T04:58:45;2.47;;;1.93;;
18076;SDS011;9165;45.714;11.362;2023-06-05T05:01:12;2.13;;;1.83;;
18076;SDS011;9165;45.714;11.362;2023-06-05T05:03:41;2.77;;;1.90;;
18076;SDS011;9165;45.714;11.362;2023-06-05T05:06:11;2.53;;;2.20;;
18076;SDS011;9165;45.714;11.362;2023-06-05T05:08:39;2.50;;;2.10;;
18076;SDS011;9165;45.714;11.362;2023-06-05T05:11:06;1.90;;;1.53;;
18076;SDS011;9165;45.714;11.362;2023-06-05T05:13:32;2.80;;;2.07;;
18076;SDS011;9165;45.714;11.362;2023-06-05T05:15:59;3.07;;;1.50;;
18076;SDS011;9165;45.714;11.362;2023-06-05T05:18:25;2.40;;;2.20;;
18076;SDS011;9165;45.714;11.362;2023-06-05T05:20:53;4.10;;;1.90;;
18076;SDS011;9165;45.714;11.362;2023-06-05T05:23:21;3.57;;;2.33;;
18076;SDS011;9165;45.714;11.362;2023-06-05T05:25:47;2.67;;;1.67;;
18076;SDS011;9165;45.714;11.362;2023-06-05T05:28:14;2.97;;;1.87;;
18076;SDS011;9165;45.714;11.362;2023-06-05T05:30:41;2.07;;;1.80;;
18076;SDS011;9165;45.714;11.362;2023-06-05T05:33:07;5.83;;;2.27;;
18076;SDS011;9165;45.714;11.362;2023-06-05T05:35:34;2.07;;;1.50;;
18076;SDS011;9165;45.714;11.362;2023-06-05T05:38:01;2.23;;;1.90;;
18076;SDS011;9165;45.714;11.362;2023-06-05T05:40:29;2.47;;;2.00;;
18076;SDS011;9165;45.714;11.362;2023-06-05T05:42:56;2.50;;;2.03;;
18076;SDS011;9165;45.714;11.362;2023-06-05T05:45:22;4.73;;;2.13;;
18076;SDS011;9165;45.714;11.362;2023-06-05T05:47:49;3.43;;;1.90;;
18076;SDS011;9165;45.714;11.362;2023-06-05T05:50:15;2.97;;;2.00;;
18076;SDS011;9165;45.714;11.362;2023-06-05T05:52:42;2.90;;;1.90;;
18076;SDS011;9165;45.714;11.362;2023-06-05T05:55:10;5.70;;;2.10;;
18076;SDS011;9165;45.714;11.362;2023-06-05T05:57:38;3.63;;;1.90;;
18076;SDS011;9165;45.714;11.362;2023-06-05T06:00:05;4.07;;;2.33;;
18076;SDS011;9165;45.714;11.362;2023-06-05T06:02:34;2.17;;;1.70;;
18076;SDS011;9165;45.714;11.362;2023-06-05T06:05:01;2.93;;;1.80;;
18076;SDS011;9165;45.714;11.362;2023-06-05T06:07:29;2.30;;;2.10;;
18076;SDS011;9165;45.714;11.362;2023-06-05T06:09:55;1.60;;;1.50;;
18076;SDS011;9165;45.714;11.362;2023-06-05T06:12:22;3.03;;;1.70;;
18076;SDS011;9165;45.714;11.362;2023-06-05T06:14:50;2.27;;;2.00;;
18076;SDS011;9165;45.714;11.362;2023-06-05T06:17:17;1.50;;;1.40;;
18076;SDS011;9165;45.714;11.362;2023-06-05T06:19:44;1.90;;;1.70;;
18076;SDS011;9165;45.714;11.362;2023-06-05T06:22:10;2.40;;;1.67;;
18076;SDS011;9165;45.714;11.362;2023-06-05T06:24:38;6.67;;;2.00;;
18076;SDS011;9165;45.714;11.362;2023-06-05T06:27:06;4.50;;;2.10;;
18076;SDS011;9165;45.714;11.362;2023-06-05T06:29:34;3.17;;;1.90;;
18076;SDS011;9165;45.714;11.362;2023-06-05T06:32:02;3.60;;;1.73;;
18076;SDS011;9165;45.714;11.362;2023-06-05T06:34:29;2.90;;;2.10;;
18076;SDS011;9165;45.714;11.362;2023-06-05T06:36:58;7.17;;;2.13;;
18076;SDS011;9165;45.714;11.362;2023-06-05T06:39:24;2.73;;;1.80;;
18076;SDS011;9165;45.714;11.362;2023-06-05T06:41:51;3.43;;;2.53;;
18076;SDS011;9165;45.714;11.362;2023-06-05T06:44:18;4.57;;;2.03;;
18076;SDS011;9165;45.714;11.362;2023-06-05T06:46:45;2.50;;;1.80;;
18076;SDS011;9165;45.714;11.362;2023-06-05T06:49:13;2.43;;;1.73;;
18076;SDS011;9165;45.714;11.362;2023-06-05T06:51:39;2.33;;;1.70;;
18076;SDS011;9165;45.714;11.362;2023-06-05T06:54:06;6.90;;;2.23;;
18076;SDS011;9165;45.714;11.362;2023-06-05T06:56:32;2.73;;;1.63;;
18076;SDS011;9165;45.714;11.362;2023-06-05T06:58:59;1.73;;;1.63;;
18076;SDS011;9165;45.714;11.362;2023-06-05T07:01:27;6.00;;;1.90;;
18076;SDS011;9165;45.714;11.362;2023-06-05T07:03:54;3.27;;;2.40;;
18076;SDS011;9165;45.714;11.362;2023-06-05T07:06:22;4.97;;;1.57;;
18076;SDS011;9165;45.714;11.362;2023-06-05T07:08:48;2.73;;;1.97;;
18076;SDS011;9165;45.714;11.362;2023-06-05T07:11:15;4.03;;;3.20;;
18076;SDS011;9165;45.714;11.362;2023-06-05T07:13:42;1.57;;;1.47;;
18076;SDS011;9165;45.714;11.362;2023-06-05T07:16:09;1.60;;;1.50;;
18076;SDS011;9165;45.714;11.362;2023-06-05T07:18:36;2.03;;;1.77;;
18076;SDS011;9165;45.714;11.362;2023-06-05T07:21:02;2.57;;;1.70;;
18076;SDS011;9165;45.714;11.362;2023-06-05T07:23:30;1.73;;;1.50;;
18076;SDS011;9165;45.714;11.362;2023-06-05T07:25:57;3.77;;;2.40;;
18076;SDS011;9165;45.714;11.362;2023-06-05T07:28:24;4.37;;;2.00;;
18076;SDS011;9165;45.714;11.362;2023-06-05T07:30:50;2.20;;;1.40;;
18076;SDS011;9165;45.714;11.362;2023-06-05T07:33:17;2.53;;;1.73;;
18076;SDS011;9165;45.714;11.362;2023-06-05T07:35:44;2.37;;;1.67;;
18076;SDS011;9165;45.714;11.362;2023-06-05T07:38:10;1.57;;;1.47;;
18076;SDS011;9165;45.714;11.362;2023-06-05T07:40:38;1.80;;;1.50;;
18076;SDS011;9165;45.714;11.362;2023-06-05T07:43:05;5.53;;;2.20;;
18076;SDS011;9165;45.714;11.362;2023-06-05T07:45:34;2.30;;;1.70;;
18076;SDS011;9165;45.714;11.362;2023-06-05T07:48:00;2.43;;;1.90;;
18076;SDS011;9165;45.714;11.362;2023-06-05T07:50:27;5.97;;;2.40;;
18076;SDS011;9165;45.714;11.362;2023-06-05T07:52:55;3.90;;;2.10;;
18076;SDS011;9165;45.714;11.362;2023-06-05T07:55:21;4.63;;;2.10;;
18076;SDS011;9165;45.714;11.362;2023-06-05T07:57:49;3.03;;;2.73;;
18076;SDS011;9165;45.714;11.362;2023-06-05T08:00:18;2.77;;;2.50;;
18076;SDS011;9165;45.714;11.362;2023-06-05T08:02:45;3.67;;;3.23;;
18076;SDS011;9165;45.714;11.362;2023-06-05T08:05:13;5.60;;;2.77;;
18076;SDS011;9165;45.714;11.362;2023-06-05T08:07:41;2.33;;;2.13;;
18076;SDS011;9165;45.714;11.362;2023-06-05T08:10:08;4.23;;;2.83;;
18076;SDS011;9165;45.714;11.362;2023-06-05T08:12:35;4.37;;;2.87;;
18076;SDS011;9165;45.714;11.362;2023-06-05T08:15:03;3.53;;;2.90;;
18076;SDS011;9165;45.714;11.362;2023-06-05T08:17:30;5.63;;;3.30;;
18076;SDS011;9165;45.714;11.362;2023-06-05T08:19:57;5.03;;;2.33;;
18076;SDS011;9165;45.714;11.362;2023-06-05T08:22:24;3.87;;;3.00;;
18076;SDS011;9165;45.714;11.362;2023-06-05T08:24:50;6.20;;;3.20;;
18076;SDS011;9165;45.714;11.362;2023-06-05T08:27:19;2.97;;;2.73;;
18076;SDS011;9165;45.714;11.362;2023-06-05T08:29:46;4.37;;;3.20;;
18076;SDS011;9165;45.714;11.362;2023-06-05T08:32:13;3.67;;;2.80;;
18076;SDS011;9165;45.714;11.362;2023-06-05T08:34:42;6.40;;;2.90;;
18076;SDS011;9165;45.714;11.362;2023-06-05T08:37:09;5.57;;;3.13;;
18076;SDS011;9165;45.714;11.362;2023-06-05T08:39:36;3.70;;;2.70;;
18076;SDS011;9165;45.714;11.362;2023-06-05T08:42:03;3.73;;;2.87;;
18076;SDS011;9165;45.714;11.362;2023-06-05T08:44:31;4.33;;;2.90;;
18076;SDS011;9165;45.714;11.362;2023-06-05T08:46:59;4.13;;;2.53;;
18076;SDS011;9165;45.714;11.362;2023-06-05T08:49:28;4.87;;;3.03;;
18076;SDS011;9165;45.714;11.362;2023-06-05T08:51:57;4.27;;;2.97;;
18076;SDS011;9165;45.714;11.362;2023-06-05T08:54:27;4.30;;;2.93;;
18076;SDS011;9165;45.714;11.362;2023-06-05T08:56:54;3.27;;;2.87;;
18076;SDS011;9165;45.714;11.362;2023-06-05T08:59:21;4.37;;;2.90;;
18076;SDS011;9165;45.714;11.362;2023-06-05T09:01:50;4.90;;;3.50;;
18076;SDS011;9165;45.714;11.362;2023-06-05T09:04:16;5.17;;;3.53;;
18076;SDS011;9165;45.714;11.362;2023-06-05T09:06:46;4.67;;;3.23;;
18076;SDS011;9165;45.714;11.362;2023-06-05T09:09:14;6.40;;;3.13;;
18076;SDS011;9165;45.714;11.362;2023-06-05T09:11:40;2.93;;;2.60;;
18076;SDS011;9165;45.714;11.362;2023-06-05T09:14:07;5.87;;;3.20;;
18076;SDS011;9165;45.714;11.362;2023-06-05T09:16:35;5.03;;;3.17;;
18076;SDS011;9165;45.714;11.362;2023-06-05T09:19:03;5.70;;;2.63;;
18076;SDS011;9165;45.714;11.362;2023-06-05T09:21:30;4.13;;;2.87;;
18076;SDS011;9165;45.714;11.362;2023-06-05T09:24:11;4.40;;;2.90;;
18076;SDS011;9165;45.714;11.362;2023-06-05T09:26:48;3.13;;;2.90;;
18076;SDS011;9165;45.714;11.362;2023-06-05T09:29:19;4.50;;;2.53;;
18076;SDS011;9165;45.714;11.362;2023-06-05T09:31:46;4.00;;;2.70;;
18076;SDS011;9165;45.714;11.362;2023-06-05T09:34:19;3.13;;;2.20;;
18076;SDS011;9165;45.714;11.362;2023-06-05T09:36:46;3.83;;;2.37;;
18076;SDS011;9165;45.714;11.362;2023-06-05T09:39:14;3.40;;;2.97;;
18076;SDS011;9165;45.714;11.362;2023-06-05T09:41:41;2.40;;;2.20;;
18076;SDS011;9165;45.714;11.362;2023-06-05T09:44:09;3.97;;;3.20;;
18076;SDS011;9165;45.714;11.362;2023-06-05T09:46:37;4.33;;;2.60;;
18076;SDS011;9165;45.714;11.362;2023-06-05T09:49:16;3.17;;;2.10;;
18076;SDS011;9165;45.714;11.362;2023-06-05T09:51:42;2.90;;;2.40;;
18076;SDS011;9165;45.714;11.362;2023-06-05T09:54:09;3.40;;;3.00;;
18076;SDS011;9165;45.714;11.362;2023-06-05T09:56:39;4.40;;;3.97;;
18076;SDS011;9165;45.714;11.362;2023-06-05T09:59:06;5.23;;;2.87;;
18076;SDS011;9165;45.714;11.362;2023-06-05T10:01:34;2.53;;;1.80;;
18076;SDS011;9165;45.714;11.362;2023-06-05T10:04:02;3.00;;;2.10;;
18076;SDS011;9165;45.714;11.362;2023-06-05T10:06:31;3.23;;;2.40;;
18076;SDS011;9165;45.714;11.362;2023-06-05T10:08:58;3.80;;;2.40;;
18076;SDS011;9165;45.714;11.362;2023-06-05T10:11:25;2.77;;;2.10;;
18076;SDS011;9165;45.714;11.362;2023-06-05T10:13:54;4.00;;;3.20;;
18076;SDS011;9165;45.714;11.362;2023-06-05T10:16:25;5.97;;;4.67;;
18076;SDS011;9165;45.714;11.362;2023-06-05T10:18:53;3.20;;;2.73;;
18076;SDS011;9165;45.714;11.362;2023-06-05T10:21:19;1.63;;;1.53;;
18076;SDS011;9165;45.714;11.362;2023-06-05T10:23:47;3.20;;;2.67;;
18076;SDS011;9165;45.714;11.362;2023-06-05T10:26:15;3.77;;;3.03;;
18076;SDS011;9165;45.714;11.362;2023-06-05T10:28:47;2.33;;;2.13;;
18076;SDS011;9165;45.714;11.362;2023-06-05T10:31:20;4.37;;;2.77;;
18076;SDS011;9165;45.714;11.362;2023-06-05T10:33:54;2.57;;;1.87;;
18076;SDS011;9165;45.714;11.362;2023-06-05T10:36:26;2.40;;;1.70;;
18076;SDS011;9165;45.714;11.362;2023-06-05T10:38:57;2.63;;;2.07;;
18076;SDS011;9165;45.714;11.362;2023-06-05T10:41:25;3.67;;;2.73;;
18076;SDS011;9165;45.714;11.362;2023-06-05T10:43:52;4.30;;;2.20;;
18076;SDS011;9165;45.714;11.362;2023-06-05T10:46:31;2.30;;;1.80;;
18076;SDS011;9165;45.714;11.362;2023-06-05T10:51:48;4.00;;;2.70;;
18076;SDS011;9165;45.714;11.362;2023-06-05T10:57:05;3.10;;;2.10;;
18076;SDS011;9165;45.714;11.362;2023-06-05T10:59:32;2.50;;;2.30;;
18076;SDS011;9165;45.714;11.362;2023-06-05T11:05:05;5.47;;;3.27;;
18076;SDS011;9165;45.714;11.362;2023-06-05T11:07:32;5.13;;;3.43;;
18076;SDS011;9165;45.714;11.362;2023-06-05T11:10:05;4.80;;;3.80;;
18076;SDS011;9165;45.714;11.362;2023-06-05T11:15:36;6.73;;;3.73;;
18076;SDS011;9165;45.714;11.362;2023-06-05T11:20:54;4.47;;;4.00;;
18076;SDS011;9165;45.714;11.362;2023-06-05T11:23:21;4.20;;;3.33;;
18076;SDS011;9165;45.714;11.362;2023-06-05T11:25:52;4.83;;;3.70;;
18076;SDS011;9165;45.714;11.362;2023-06-05T11:31:06;4.10;;;3.00;;
18076;SDS011;9165;45.714;11.362;2023-06-05T11:33:33;4.70;;;3.40;;
18076;SDS011;9165;45.714;11.362;2023-06-05T11:36:03;4.13;;;2.93;;
18076;SDS011;9165;45.714;11.362;2023-06-05T11:38:30;4.37;;;3.37;;
18076;SDS011;9165;45.714;11.362;2023-06-05T11:40:57;3.70;;;3.10;;
18076;SDS011;9165;45.714;11.362;2023-06-05T11:43:24;4.87;;;3.37;;
18076;SDS011;9165;45.714;11.362;2023-06-05T11:45:52;3.70;;;3.27;;
18076;SDS011;9165;45.714;11.362;2023-06-05T11:48:19;3.97;;;3.13;;
18076;SDS011;9165;45.714;11.362;2023-06-05T11:50:52;5.63;;;3.43;;
18076;SDS011;9165;45.714;11.362;2023-06-05T11:53:21;4.10;;;3.23;;
18076;SDS011;9165;45.714;11.362;2023-06-05T11:55:48;4.30;;;3.27;;
18076;SDS011;9165;45.714;11.362;2023-06-05T11:58:32;4.23;;;3.67;;
18076;SDS011;9165;45.714;11.362;2023-06-05T12:01:06;3.80;;;3.30;;
18076;SDS011;9165;45.714;11.362;2023-06-05T12:03:34;5.80;;;3.80;;
18076;SDS011;9165;45.714;11.362;2023-06-05T12:06:01;5.40;;;3.37;;
18076;SDS011;9165;45.714;11.362;2023-06-05T12:08:30;4.60;;;3.00;;
18076;SDS011;9165;45.714;11.362;2023-06-05T12:10:58;5.17;;;3.47;;
18076;SDS011;9165;45.714;11.362;2023-06-05T12:16:06;6.80;;;3.77;;
18076;SDS011;9165;45.714;11.362;2023-06-05T12:18:33;4.60;;;4.17;;
18076;SDS011;9165;45.714;11.362;2023-06-05T12:20:59;5.53;;;4.20;;
18076;SDS011;9165;45.714;11.362;2023-06-05T12:23:27;6.87;;;4.10;;
18076;SDS011;9165;45.714;11.362;2023-06-05T12:26:00;4.53;;;3.43;;
18076;SDS011;9165;45.714;11.362;2023-06-05T12:28:28;5.03;;;3.20;;
18076;SDS011;9165;45.714;11.362;2023-06-05T12:30:55;4.00;;;3.20;;
18076;SDS011;9165;45.714;11.362;2023-06-05T12:33:21;3.93;;;3.53;;
18076;SDS011;9165;45.714;11.362;2023-06-05T12:36:01;6.30;;;3.43;;
18076;SDS011;9165;45.714;11.362;2023-06-05T12:38:28;4.83;;;3.13;;
18076;SDS011;9165;45.714;11.362;2023-06-05T12:40:54;4.13;;;3.67;;
18076;SDS011;9165;45.714;11.362;2023-06-05T12:43:23;6.93;;;3.80;;
18076;SDS011;9165;45.714;11.362;2023-06-05T12:45:50;4.40;;;3.60;;
18076;SDS011;9165;45.714;11.362;2023-06-05T12:48:18;3.83;;;3.40;;
18076;SDS011;9165;45.714;11.362;2023-06-05T12:50:45;6.57;;;3.57;;
18076;SDS011;9165;45.714;11.362;2023-06-05T12:53:12;3.63;;;3.27;;
18076;SDS011;9165;45.714;11.362;2023-06-05T12:55:39;3.90;;;3.50;;
18076;SDS011;9165;45.714;11.362;2023-06-05T12:58:06;5.10;;;3.40;;
18076;SDS011;9165;45.714;11.362;2023-06-05T13:00:34;5.57;;;4.50;;
18076;SDS011;9165;45.714;11.362;2023-06-05T13:03:01;4.63;;;2.87;;
18076;SDS011;9165;45.714;11.362;2023-06-05T13:05:28;6.80;;;3.67;;
18076;SDS011;9165;45.714;11.362;2023-06-05T13:07:55;2.97;;;2.67;;
18076;SDS011;9165;45.714;11.362;2023-06-05T13:10:21;4.87;;;3.40;;
18076;SDS011;9165;45.714;11.362;2023-06-05T13:12:48;3.73;;;3.13;;
18076;SDS011;9165;45.714;11.362;2023-06-05T13:15:15;3.93;;;3.20;;
18076;SDS011;9165;45.714;11.362;2023-06-05T13:17:43;3.07;;;2.77;;
18076;SDS011;9165;45.714;11.362;2023-06-05T13:20:11;3.93;;;3.07;;
18076;SDS011;9165;45.714;11.362;2023-06-05T13:22:39;4.23;;;2.90;;
18076;SDS011;9165;45.714;11.362;2023-06-05T13:25:06;3.57;;;3.10;;
18076;SDS011;9165;45.714;11.362;2023-06-05T13:27:33;7.53;;;4.03;;
18076;SDS011;9165;45.714;11.362;2023-06-05T13:30:00;5.60;;;3.67;;
18076;SDS011;9165;45.714;11.362;2023-06-05T13:32:27;7.27;;;3.90;;
18076;SDS011;9165;45.714;11.362;2023-06-05T13:34:56;3.93;;;3.27;;
18076;SDS011;9165;45.714;11.362;2023-06-05T13:37:23;3.63;;;3.23;;
18076;SDS011;9165;45.714;11.362;2023-06-05T13:39:50;7.23;;;3.30;;
18076;SDS011;9165;45.714;11.362;2023-06-05T13:42:17;4.43;;;3.87;;
18076;SDS011;9165;45.714;11.362;2023-06-05T13:44:44;4.23;;;3.70;;
18076;SDS011;9165;45.714;11.362;2023-06-05T13:47:11;5.70;;;3.70;;
18076;SDS011;9165;45.714;11.362;2023-06-05T13:49:37;2.03;;;1.93;;
18076;SDS011;9165;45.714;11.362;2023-06-05T13:52:06;4.33;;;2.40;;
18076;SDS011;9165;45.714;11.362;2023-06-05T13:54:32;2.30;;;2.10;;
18076;SDS011;9165;45.714;11.362;2023-06-05T13:56:59;3.50;;;2.30;;
18076;SDS011;9165;45.714;11.362;2023-06-05T13:59:26;2.00;;;1.77;;
18076;SDS011;9165;45.714;11.362;2023-06-05T14:01:52;2.80;;;1.90;;
18076;SDS011;9165;45.714;11.362;2023-06-05T14:04:19;2.40;;;2.20;;
18076;SDS011;9165;45.714;11.362;2023-06-05T14:06:46;4.37;;;2.13;;
18076;SDS011;9165;45.714;11.362;2023-06-05T14:09:14;3.57;;;2.57;;
18076;SDS011;9165;45.714;11.362;2023-06-05T14:11:41;2.77;;;2.00;;
18076;SDS011;9165;45.714;11.362;2023-06-05T14:14:09;4.30;;;2.07;;
18076;SDS011;9165;45.714;11.362;2023-06-05T14:16:35;1.77;;;1.67;;
18076;SDS011;9165;45.714;11.362;2023-06-05T14:19:02;2.30;;;1.70;;
18076;SDS011;9165;45.714;11.362;2023-06-05T14:21:29;2.90;;;1.93;;
18076;SDS011;9165;45.714;11.362;2023-06-05T14:23:55;1.97;;;1.77;;
18076;SDS011;9165;45.714;11.362;2023-06-05T14:26:28;2.37;;;1.90;;
18076;SDS011;9165;45.714;11.362;2023-06-05T14:28:54;2.13;;;1.70;;
18076;SDS011;9165;45.714;11.362;2023-06-05T14:31:21;1.73;;;1.63;;
18076;SDS011;9165;45.714;11.362;2023-06-05T14:33:50;1.90;;;1.70;;
18076;SDS011;9165;45.714;11.362;2023-06-05T14:36:17;2.13;;;1.80;;
18076;SDS011;9165;45.714;11.362;2023-06-05T14:38:43;1.60;;;1.50;;
18076;SDS011;9165;45.714;11.362;2023-06-05T14:41:10;1.87;;;1.77;;
18076;SDS011;9165;45.714;11.362;2023-06-05T14:43:38;2.90;;;1.43;;
18076;SDS011;9165;45.714;11.362;2023-06-05T14:46:04;1.60;;;1.50;;
18076;SDS011;9165;45.714;11.362;2023-06-05T14:48:31;3.17;;;1.57;;
18076;SDS011;9165;45.714;11.362;2023-06-05T14:50:57;2.27;;;1.90;;
18076;SDS011;9165;45.714;11.362;2023-06-05T14:53:24;2.03;;;1.70;;
18076;SDS011;9165;45.714;11.362;2023-06-05T14:55:52;2.33;;;1.77;;
18076;SDS011;9165;45.714;11.362;2023-06-05T14:58:19;2.10;;;1.90;;
18076;SDS011;9165;45.714;11.362;2023-06-05T15:00:47;1.87;;;1.77;;
18076;SDS011;9165;45.714;11.362;2023-06-05T15:03:13;2.17;;;1.73;;
18076;SDS011;9165;45.714;11.362;2023-06-05T15:05:40;2.60;;;1.80;;
18076;SDS011;9165;45.714;11.362;2023-06-05T15:08:07;4.97;;;1.90;;
18076;SDS011;9165;45.714;11.362;2023-06-05T15:10:33;2.03;;;1.83;;